Royalwing — JKVX — position and weather

sailwx.info

Track history (hours):
 
Tides and Currents Weather Stations Pressure Air Temp Water Temp Dewpoint Dewpoint Depression Visibility Wind Speed Wind Dir Waves Ship Positions

Royalwing

Last reported at 2017-Nov-18 21:30 UTC. Time now 2017-Nov-18 21:59 UTC.
Position N 35°27' E 139°39'.

Length 83 m; draft 4 m.

Type: Ship (hazmat cat A). MMSI: 431000547.

Date/timePositionNaut miles runAvg speedWind from/ knotsBaromVisibWave heightAir tempDewpointWater temp
2017-Nov-18 21:30N 35°27' E 139°39'0 0.0
2017-Nov-18 21:00N 35°27' E 139°39'0 0.0
2017-Nov-18 20:30N 35°27' E 139°39'0 0.0
2017-Nov-18 20:00N 35°27' E 139°39'0 0.0
2017-Nov-18 19:30N 35°27' E 139°39'0 0.0
2017-Nov-18 19:00N 35°27' E 139°39'0 0.0
2017-Nov-18 18:30N 35°27' E 139°39'0 0.0
2017-Nov-18 18:00N 35°27' E 139°39'0 0.0
2017-Nov-18 17:30N 35°27' E 139°39'0 0.0
2017-Nov-18 17:00N 35°27' E 139°39'0 0.0
2017-Nov-18 16:27N 35°27' E 139°39'0 0.0
2017-Nov-18 16:00N 35°27' E 139°39'0 0.0
2017-Nov-18 15:27N 35°27' E 139°39'0 0.0
2017-Nov-18 15:00N 35°27' E 139°39'0 0.0
2017-Nov-18 14:30N 35°27' E 139°39'0 0.0
2017-Nov-18 14:00N 35°27' E 139°39'0 0.0
2017-Nov-18 13:30N 35°27' E 139°39'0 0.0
2017-Nov-18 13:00N 35°27' E 139°39'0 0.0
2017-Nov-18 12:30N 35°27' E 139°39'1 1.2
2017-Nov-18 12:01N 35°28' E 139°39'2 3.3
2017-Nov-18 11:31N 35°27' E 139°41'2 3.2
2017-Nov-18 11:01N 35°28' E 139°40'1 2.9
2017-Nov-18 10:31N 35°27' E 139°39'0 0.0
2017-Nov-18 09:58N 35°27' E 139°39'1 1.8
2017-Nov-18 09:30N 35°28' E 139°39'3 5.5
2017-Nov-18 09:00N 35°27' E 139°42'0 0.8
2017-Nov-18 08:30N 35°27' E 139°41'2 4.1
2017-Nov-18 08:00N 35°27' E 139°39'0 0.0
2017-Nov-18 07:29N 35°27' E 139°39'1 1.2
2017-Nov-18 07:00N 35°28' E 139°39'3 5.7
2017-Nov-18 06:30N 35°26' E 139°42'2 4.7
2017-Nov-18 06:00N 35°27' E 139°40'1 1.2
2017-Nov-18 05:28N 35°27' E 139°39'0 0.0
2017-Nov-18 04:58N 35°27' E 139°39'1 1.7
2017-Nov-18 04:30N 35°28' E 139°39'3 5.3
2017-Nov-18 04:00N 35°27' E 139°42'0 0.6
2017-Nov-18 03:30N 35°27' E 139°41'2 3.9
2017-Nov-18 03:00N 35°27' E 139°39'0 0.0
2017-Nov-18 02:28N 35°27' E 139°39'0 0.0
2017-Nov-18 01:58N 35°27' E 139°39'0 0.0
2017-Nov-18 01:28N 35°27' E 139°39'0 0.0
2017-Nov-18 00:58N 35°27' E 139°39'0 0.0
2017-Nov-18 00:28N 35°27' E 139°39'0 0.0
2017-Nov-17 23:58N 35°27' E 139°39'0 0.0
2017-Nov-17 23:28N 35°27' E 139°39'0 0.0
2017-Nov-17 22:58N 35°27' E 139°39'0 0.0
2017-Nov-17 22:28N 35°27' E 139°39'0 0.0
2017-Nov-17 21:58N 35°27' E 139°39'0 0.0
2017-Nov-17 21:28N 35°27' E 139°39'0 0.0
2017-Nov-17 20:58N 35°27' E 139°39'0 0.0
2017-Nov-17 20:28N 35°27' E 139°39'0 0.0
2017-Nov-17 19:58N 35°27' E 139°39'0 0.0
2017-Nov-17 19:28N 35°27' E 139°39'0 0.0
2017-Nov-17 18:58N 35°27' E 139°39'0 0.0
2017-Nov-17 18:28N 35°27' E 139°39'0 0.0
2017-Nov-17 17:58N 35°27' E 139°39'0 0.0
2017-Nov-17 17:28N 35°27' E 139°39'0 0.0
2017-Nov-17 16:58N 35°27' E 139°39'0 0.0
2017-Nov-17 16:28N 35°27' E 139°39'0 0.0
2017-Nov-17 15:58N 35°27' E 139°39'0 0.0
2017-Nov-17 15:28N 35°27' E 139°39'0 0.0
2017-Nov-17 14:58N 35°27' E 139°39'0 0.0
2017-Nov-17 14:28N 35°27' E 139°39'0 0.0
2017-Nov-17 13:58N 35°27' E 139°39'0 0.0
2017-Nov-17 13:28N 35°27' E 139°39'0 0.0
2017-Nov-17 12:58N 35°27' E 139°39'0 0.0
2017-Nov-17 12:28N 35°27' E 139°39'1 1.7
2017-Nov-17 12:00N 35°28' E 139°39'3 5.2
2017-Nov-17 11:30N 35°27' E 139°42'0 0.5
2017-Nov-17 11:00N 35°27' E 139°41'2 3.9
2017-Nov-17 10:30N 35°27' E 139°39'0 0.0
2017-Nov-17 09:59N 35°27' E 139°39'1 1.8
2017-Nov-17 09:30N 35°28' E 139°39'3 5.5
2017-Nov-17 09:00N 35°27' E 139°42'1 1.0
2017-Nov-17 08:30N 35°27' E 139°41'2 3.6
2017-Nov-17 08:00N 35°27' E 139°39'0 0.0
2017-Nov-17 07:28N 35°27' E 139°39'1 1.1
2017-Nov-17 07:00N 35°28' E 139°39'3 5.6
2017-Nov-17 06:30N 35°26' E 139°42'2 4.7
2017-Nov-17 06:00N 35°27' E 139°40'1 1.4
2017-Nov-17 05:30N 35°27' E 139°39'0 0.0
2017-Nov-17 04:59N 35°27' E 139°39'1 1.8
2017-Nov-17 04:30N 35°28' E 139°39'3 6.5
2017-Nov-17 04:00N 35°26' E 139°42'1 1.4
2017-Nov-17 03:30N 35°27' E 139°41'2 4.3
2017-Nov-17 03:00N 35°27' E 139°39'0 0.0
2017-Nov-17 02:29N 35°27' E 139°39'0 0.0
2017-Nov-17 01:58N 35°27' E 139°39'0 0.0
2017-Nov-17 01:29N 35°27' E 139°39'0 0.0
2017-Nov-17 00:59N 35°27' E 139°39'0 0.0
2017-Nov-17 00:29N 35°27' E 139°39'0 0.0
2017-Nov-16 23:59N 35°27' E 139°39'0 0.0
2017-Nov-16 23:29N 35°27' E 139°39'0 0.0
2017-Nov-16 22:59N 35°27' E 139°39'0 0.0
2017-Nov-16 22:29N 35°27' E 139°39'0 0.0
2017-Nov-16 21:59N 35°27' E 139°39'0 0.0
2017-Nov-16 21:29N 35°27' E 139°39'0 0.0
2017-Nov-16 20:59N 35°27' E 139°39'0 0.0
2017-Nov-16 20:29N 35°27' E 139°39'0 0.0
2017-Nov-16 19:58N 35°27' E 139°39'0 0.0
2017-Nov-16 19:29N 35°27' E 139°39'0 0.0
2017-Nov-16 18:59N 35°27' E 139°39'0 0.0
2017-Nov-16 18:29N 35°27' E 139°39'0 0.0
2017-Nov-16 17:59N 35°27' E 139°39'0 0.0
2017-Nov-16 17:29N 35°27' E 139°39'0 0.0
2017-Nov-16 16:58N 35°27' E 139°39'0 0.0
2017-Nov-16 16:29N 35°27' E 139°39'0 0.0
2017-Nov-16 15:59N 35°27' E 139°39'0 0.0
2017-Nov-16 15:29N 35°27' E 139°39'0 0.0
2017-Nov-16 14:59N 35°27' E 139°39'0 0.0
2017-Nov-16 14:29N 35°27' E 139°39'0 0.0
2017-Nov-16 13:59N 35°27' E 139°39'0 0.0
2017-Nov-16 13:29N 35°27' E 139°39'0 0.0
2017-Nov-16 12:59N 35°27' E 139°39'0 0.0
2017-Nov-16 12:28N 35°27' E 139°39'1 1.4
2017-Nov-16 12:01N 35°28' E 139°39'2 3.7
2017-Nov-16 11:30N 35°27' E 139°41'2 3.8
2017-Nov-16 11:01N 35°28' E 139°39'1 1.4
2017-Nov-16 10:30N 35°27' E 139°39'0 0.0
2017-Nov-16 10:00N 35°27' E 139°39'1 1.9
2017-Nov-16 09:30N 35°28' E 139°39'0 0.3
2017-Nov-16 09:00N 35°28' E 139°39'2 4.5
2017-Nov-16 08:30N 35°27' E 139°41'2 3.7
2017-Nov-16 08:00N 35°27' E 139°39'0 0.0
2017-Nov-16 07:28N 35°27' E 139°39'1 1.2
2017-Nov-16 07:00N 35°28' E 139°39'2 4.5
2017-Nov-16 06:31N 35°27' E 139°42'2 3.6
2017-Nov-16 06:01N 35°28' E 139°40'1 1.6
2017-Nov-16 05:29N 35°27' E 139°39'0 0.0
2017-Nov-16 04:59N 35°27' E 139°39'1 1.8
2017-Nov-16 04:30N 35°28' E 139°39'3 6.5
2017-Nov-16 04:00N 35°26' E 139°42'1 1.4
2017-Nov-16 03:30N 35°27' E 139°41'2 4.2
2017-Nov-16 03:00N 35°27' E 139°39'0 0.0
2017-Nov-16 02:29N 35°27' E 139°39'0 0.0
2017-Nov-16 01:59N 35°27' E 139°39'0 0.0
2017-Nov-16 01:29N 35°27' E 139°39'0 0.0
2017-Nov-16 00:59N 35°27' E 139°39'0 0.0
2017-Nov-16 00:29N 35°27' E 139°39'0 0.0
2017-Nov-15 23:59N 35°27' E 139°39'0 0.0
2017-Nov-15 23:29N 35°27' E 139°39'0 0.0
2017-Nov-15 22:59N 35°27' E 139°39'0 0.0
2017-Nov-15 22:29N 35°27' E 139°39'0 0.0
2017-Nov-15 21:59N 35°27' E 139°39'0 0.0
2017-Nov-15 21:29N 35°27' E 139°39'0 0.0
2017-Nov-15 20:59N 35°27' E 139°39'0 0.0
2017-Nov-15 20:29N 35°27' E 139°39'0 0.0
2017-Nov-15 19:59N 35°27' E 139°39'0 0.0
2017-Nov-15 19:29N 35°27' E 139°39'0 0.0
2017-Nov-15 18:59N 35°27' E 139°39'0 0.0
2017-Nov-15 18:29N 35°27' E 139°39'0 0.0
2017-Nov-15 17:59N 35°27' E 139°39'0 0.0
2017-Nov-15 17:29N 35°27' E 139°39'0 0.0
2017-Nov-15 16:59N 35°27' E 139°39'0 0.0
2017-Nov-15 16:29N 35°27' E 139°39'0 0.0
2017-Nov-15 15:59N 35°27' E 139°39'0 0.0
2017-Nov-15 15:29N 35°27' E 139°39'0 0.0
2017-Nov-15 14:59N 35°27' E 139°39'0 0.0
2017-Nov-15 14:29N 35°27' E 139°39'0 0.0
2017-Nov-15 13:59N 35°27' E 139°39'0 0.0
2017-Nov-15 13:29N 35°27' E 139°39'0 0.0
2017-Nov-15 12:59N 35°27' E 139°39'0 0.0
2017-Nov-15 12:29N 35°27' E 139°39'1 1.8
2017-Nov-15 12:00N 35°28' E 139°39'2 4.9
2017-Nov-15 11:30N 35°27' E 139°41'0 0.3
2017-Nov-15 11:00N 35°27' E 139°41'2 4.1
2017-Nov-15 10:31N 35°27' E 139°39'0 0.0
2017-Nov-15 09:58N 35°27' E 139°39'1 1.7
2017-Nov-15 09:30N 35°28' E 139°39'2 3.1
2017-Nov-15 09:00N 35°27' E 139°41'1 1.9
2017-Nov-15 08:30N 35°27' E 139°41'2 4.2
2017-Nov-15 08:01N 35°27' E 139°39'0 0.0
2017-Nov-15 07:30N 35°27' E 139°39'1 1.2
2017-Nov-15 07:00N 35°28' E 139°39'2 4.4
2017-Nov-15 06:30N 35°27' E 139°42'2 3.5
2017-Nov-15 06:01N 35°27' E 139°40'1 1.3
2017-Nov-15 05:28N 35°27' E 139°39'0 0.0
2017-Nov-15 04:58N 35°27' E 139°39'1 1.3
2017-Nov-15 04:30N 35°28' E 139°39'2 4.5
2017-Nov-15 04:00N 35°27' E 139°41'0 0.3
2017-Nov-15 03:30N 35°27' E 139°41'2 4.0
2017-Nov-15 03:00N 35°27' E 139°39'0 0.0
2017-Nov-15 02:29N 35°27' E 139°39'0 0.0
2017-Nov-15 01:59N 35°27' E 139°39'0 0.0
2017-Nov-15 01:29N 35°27' E 139°39'0 0.0
2017-Nov-15 00:59N 35°27' E 139°39'0 0.0
2017-Nov-15 00:29N 35°27' E 139°39'0 0.0
2017-Nov-14 23:59N 35°27' E 139°39'0 0.0
2017-Nov-14 23:29N 35°27' E 139°39'0 0.0
2017-Nov-14 22:59N 35°27' E 139°39'0 0.0
2017-Nov-14 22:29N 35°27' E 139°39'0 0.0
2017-Nov-14 21:59N 35°27' E 139°39'0 0.0
2017-Nov-14 21:29N 35°27' E 139°39'0 0.0
2017-Nov-14 20:59N 35°27' E 139°39'0 0.0
2017-Nov-14 20:29N 35°27' E 139°39'0 0.0
2017-Nov-14 19:59N 35°27' E 139°39'0 0.0
2017-Nov-14 19:29N 35°27' E 139°39'0 0.0
2017-Nov-14 18:59N 35°27' E 139°39'0 0.0
2017-Nov-14 18:29N 35°27' E 139°39'0 0.0
2017-Nov-14 17:59N 35°27' E 139°39'0 0.0
2017-Nov-14 17:29N 35°27' E 139°39'0 0.0
2017-Nov-14 16:59N 35°27' E 139°39'0 0.0
2017-Nov-14 16:29N 35°27' E 139°39'0 0.0
2017-Nov-14 15:59N 35°27' E 139°39'0 0.0
2017-Nov-14 15:29N 35°27' E 139°39'0 0.0
2017-Nov-14 14:59N 35°27' E 139°39'0 0.0
2017-Nov-14 14:29N 35°27' E 139°39'0 0.0
2017-Nov-14 13:59N 35°27' E 139°39'0 0.0
2017-Nov-14 13:29N 35°27' E 139°39'0 0.0
2017-Nov-14 12:59N 35°27' E 139°39'0 0.0
2017-Nov-14 12:29N 35°27' E 139°39'1 1.7
2017-Nov-14 12:00N 35°28' E 139°39'2 4.1
2017-Nov-14 11:30N 35°27' E 139°41'1 1.0
2017-Nov-14 11:00N 35°27' E 139°41'2 4.3
2017-Nov-14 10:30N 35°27' E 139°39'0 0.0
2017-Nov-14 09:59N 35°27' E 139°39'1 1.3
2017-Nov-14 09:30N 35°28' E 139°39'2 4.6
2017-Nov-14 09:00N 35°27' E 139°42'0 0.8
2017-Nov-14 08:30N 35°27' E 139°41'2 3.5
2017-Nov-14 08:00N 35°27' E 139°39'0 0.0
2017-Nov-14 07:30N 35°27' E 139°39'1 1.0
2017-Nov-14 07:00N 35°28' E 139°39'3 5.1
2017-Nov-14 06:30N 35°27' E 139°42'2 4.1
2017-Nov-14 06:01N 35°28' E 139°40'1 1.6
2017-Nov-14 05:30N 35°27' E 139°39'0 0.0
2017-Nov-14 05:00N 35°27' E 139°39'1 1.8
2017-Nov-14 04:30N 35°28' E 139°39'3 6.1
2017-Nov-14 04:00N 35°26' E 139°42'0 1.0
2017-Nov-14 03:30N 35°27' E 139°41'2 4.3
2017-Nov-14 03:00N 35°27' E 139°39'0 0.0
2017-Nov-14 02:28N 35°27' E 139°39'0 0.0
2017-Nov-14 01:58N 35°27' E 139°39'0 0.0
2017-Nov-14 01:28N 35°27' E 139°39'0 0.0
2017-Nov-14 00:58N 35°27' E 139°39'0 0.0
2017-Nov-14 00:28N 35°27' E 139°39'0 0.0
2017-Nov-13 23:58N 35°27' E 139°39'0 0.0
2017-Nov-13 23:28N 35°27' E 139°39'0 0.0
2017-Nov-13 22:58N 35°27' E 139°39'0 0.0
2017-Nov-13 22:28N 35°27' E 139°39'0 0.0
2017-Nov-13 21:58N 35°27' E 139°39'0 0.0
2017-Nov-13 01:55N 35°27' E 139°39'0 0.0
2017-Nov-13 01:28N 35°27' E 139°39'0 0.0
2017-Nov-13 00:58N 35°27' E 139°39'0 0.0
2017-Nov-13 00:25N 35°27' E 139°39'0 0.0
2017-Nov-12 23:58N 35°27' E 139°39'0 0.0
2017-Nov-12 23:28N 35°27' E 139°39'0 0.0
2017-Nov-12 22:58N 35°27' E 139°39'0 0.0
2017-Nov-12 22:28N 35°27' E 139°39'0 0.0
2017-Nov-12 21:58N 35°27' E 139°39'0 0.0
2017-Nov-12 21:28N 35°27' E 139°39'0 0.0
2017-Nov-12 20:58N 35°27' E 139°39'0 0.0
2017-Nov-12 20:28N 35°27' E 139°39'0 0.0
2017-Nov-12 19:58N 35°27' E 139°39'0 0.0
2017-Nov-12 19:28N 35°27' E 139°39'0 0.0
2017-Nov-12 18:58N 35°27' E 139°39'0 0.0
2017-Nov-12 18:28N 35°27' E 139°39'0 0.0
2017-Nov-12 17:58N 35°27' E 139°39'0 0.0
2017-Nov-12 17:28N 35°27' E 139°39'0 0.0
2017-Nov-12 16:58N 35°27' E 139°39'0 0.0
2017-Nov-12 16:28N 35°27' E 139°39'0 0.0
2017-Nov-12 15:58N 35°27' E 139°39'0 0.0
2017-Nov-12 15:28N 35°27' E 139°39'0 0.0
2017-Nov-12 14:58N 35°27' E 139°39'0 0.0
2017-Nov-12 14:28N 35°27' E 139°39'0 0.0
2017-Nov-12 13:58N 35°27' E 139°39'0 0.0
2017-Nov-12 13:28N 35°27' E 139°39'0 0.0
2017-Nov-12 12:58N 35°27' E 139°39'0 0.0
2017-Nov-12 12:28N 35°27' E 139°39'0 0.3
2017-Nov-12 12:00N 35°27' E 139°39'2 3.2
2017-Nov-12 11:30N 35°27' E 139°41'1 1.4
2017-Nov-12 11:00N 35°27' E 139°41'2 4.4
2017-Nov-12 10:30N 35°27' E 139°39'0 0.0
2017-Nov-12 10:00N 35°27' E 139°39'0 0.3
2017-Nov-12 09:30N 35°27' E 139°39'1 2.9
2017-Nov-12 09:00N 35°27' E 139°41'1 1.1
2017-Nov-12 08:30N 35°27' E 139°41'2 3.8
2017-Nov-12 08:00N 35°27' E 139°39'0 0.0
2017-Nov-12 07:30N 35°27' E 139°39'0 0.3
2017-Nov-12 07:00N 35°27' E 139°39'2 4.5
2017-Nov-12 06:30N 35°27' E 139°42'2 3.5
2017-Nov-12 06:00N 35°27' E 139°40'1 1.5
2017-Nov-12 05:30N 35°27' E 139°39'0 0.0
2017-Nov-12 05:00N 35°27' E 139°39'0 0.3
2017-Nov-12 04:30N 35°27' E 139°39'2 3.6
2017-Nov-12 04:00N 35°27' E 139°41'0 0.6
2017-Nov-12 03:30N 35°27' E 139°41'2 3.7
2017-Nov-12 03:00N 35°27' E 139°39'0 0.0
2017-Nov-12 02:29N 35°27' E 139°39'0 0.0
2017-Nov-12 01:59N 35°27' E 139°39'0 0.0
2017-Nov-12 01:29N 35°27' E 139°39'0 0.0
2017-Nov-12 00:59N 35°27' E 139°39'0 0.0
2017-Nov-12 00:29N 35°27' E 139°39'0 0.0
2017-Nov-11 23:59N 35°27' E 139°39'0 0.0
2017-Nov-11 23:29N 35°27' E 139°39'0 0.0
2017-Nov-11 22:56N 35°27' E 139°39'0 0.0
2017-Nov-11 22:26N 35°27' E 139°39'0 0.0
2017-Nov-11 21:59N 35°27' E 139°39'0 0.0
2017-Nov-11 21:29N 35°27' E 139°39'0 0.0
2017-Nov-11 20:59N 35°27' E 139°39'0 0.0
2017-Nov-11 20:29N 35°27' E 139°39'0 0.0
2017-Nov-11 19:59N 35°27' E 139°39'0 0.0
2017-Nov-11 19:29N 35°27' E 139°39'0 0.0
2017-Nov-11 18:56N 35°27' E 139°39'0 0.0
2017-Nov-11 18:29N 35°27' E 139°39'0 0.0
2017-Nov-11 17:59N 35°27' E 139°39'0 0.0
2017-Nov-11 17:29N 35°27' E 139°39'0 0.0
2017-Nov-11 16:59N 35°27' E 139°39'0 0.0
2017-Nov-11 16:23N 35°27' E 139°39'0 0.0
2017-Nov-11 15:59N 35°27' E 139°39'0 0.0
2017-Nov-11 15:29N 35°27' E 139°39'0 0.0
2017-Nov-11 14:59N 35°27' E 139°39'0 0.0
2017-Nov-11 14:29N 35°27' E 139°39'0 0.0
2017-Nov-11 13:59N 35°27' E 139°39'0 0.0
2017-Nov-11 13:29N 35°27' E 139°39'0 0.0
2017-Nov-11 12:59N 35°27' E 139°39'0 0.0
2017-Nov-11 12:29N 35°27' E 139°39'1 1.3
2017-Nov-11 12:00N 35°28' E 139°39'2 4.7
2017-Nov-11 11:30N 35°27' E 139°41'1 1.4
2017-Nov-11 11:00N 35°27' E 139°41'1 2.9
2017-Nov-11 10:30N 35°27' E 139°39'0 0.0
2017-Nov-11 10:00N 35°27' E 139°39'0 0.7
2017-Nov-11 09:31N 35°27' E 139°39'1 2.9
2017-Nov-11 09:00N 35°27' E 139°41'1 1.3
2017-Nov-11 08:30N 35°27' E 139°40'1 2.2
2017-Nov-11 08:01N 35°27' E 139°39'0 0.0
2017-Nov-11 07:30N 35°27' E 139°39'1 1.1
2017-Nov-11 07:01N 35°28' E 139°39'2 4.4
2017-Nov-11 06:30N 35°27' E 139°42'2 3.6
2017-Nov-11 06:01N 35°27' E 139°40'1 1.4
2017-Nov-11 05:30N 35°27' E 139°39'0 0.0
2017-Nov-11 05:00N 35°27' E 139°39'1 1.6
2017-Nov-11 04:30N 35°28' E 139°39'3 5.9
2017-Nov-11 04:00N 35°26' E 139°42'1 1.5
2017-Nov-11 03:30N 35°27' E 139°41'2 4.2
2017-Nov-11 03:00N 35°27' E 139°39'0 0.0
2017-Nov-11 02:29N 35°27' E 139°39'0 0.0
2017-Nov-11 01:59N 35°27' E 139°39'0 0.0
2017-Nov-11 01:29N 35°27' E 139°39'0 0.0
2017-Nov-11 00:59N 35°27' E 139°39'0 0.0
2017-Nov-11 00:29N 35°27' E 139°39'0 0.0
2017-Nov-10 23:59N 35°27' E 139°39'0 0.0
2017-Nov-10 23:29N 35°27' E 139°39'0 0.0
2017-Nov-10 22:59N 35°27' E 139°39'0 0.0
2017-Nov-10 22:29N 35°27' E 139°39'0 0.0
2017-Nov-10 21:59N 35°27' E 139°39'0 0.0
2017-Nov-10 21:29N 35°27' E 139°39'0 0.0
2017-Nov-10 20:59N 35°27' E 139°39'0 0.0
2017-Nov-10 20:29N 35°27' E 139°39'0 0.0
2017-Nov-10 19:59N 35°27' E 139°39'0 0.0
2017-Nov-10 19:29N 35°27' E 139°39'0 0.0
2017-Nov-10 18:59N 35°27' E 139°39'0 0.0
2017-Nov-10 18:29N 35°27' E 139°39'0 0.0
2017-Nov-10 17:59N 35°27' E 139°39'0 0.0
2017-Nov-10 17:29N 35°27' E 139°39'0 0.0
2017-Nov-10 16:59N 35°27' E 139°39'0 0.0
2017-Nov-10 16:26N 35°27' E 139°39'0 0.0
2017-Nov-10 15:59N 35°27' E 139°39'0 0.0
2017-Nov-10 15:29N 35°27' E 139°39'0 0.0
2017-Nov-10 14:59N 35°27' E 139°39'0 0.0
2017-Nov-10 14:29N 35°27' E 139°39'0 0.0
2017-Nov-10 13:59N 35°27' E 139°39'0 0.0
2017-Nov-10 13:29N 35°27' E 139°39'0 0.0
2017-Nov-10 12:59N 35°27' E 139°39'0 0.0
2017-Nov-10 12:29N 35°27' E 139°39'1 1.7
2017-Nov-10 12:00N 35°28' E 139°39'3 6.5
2017-Nov-10 11:30N 35°26' E 139°42'2 4.0
2017-Nov-10 11:00N 35°27' E 139°40'1 2.4
2017-Nov-10 10:30N 35°27' E 139°39'0 0.0
2017-Nov-10 09:56N 35°27' E 139°39'1 1.9
2017-Nov-10 09:31N 35°28' E 139°39'3 6.4
2017-Nov-10 09:00N 35°26' E 139°42'2 3.8
2017-Nov-10 08:30N 35°27' E 139°40'1 2.3
2017-Nov-10 08:01N 35°27' E 139°39'0 0.0
2017-Nov-10 07:30N 35°27' E 139°39'0 0.3
2017-Nov-10 07:00N 35°27' E 139°39'2 4.9
2017-Nov-10 06:30N 35°27' E 139°42'1 2.9
2017-Nov-10 06:00N 35°27' E 139°40'1 2.3
2017-Nov-10 05:30N 35°27' E 139°39'0 0.0
2017-Nov-10 05:00N 35°27' E 139°39'0 0.7
2017-Nov-10 04:31N 35°27' E 139°39'3 5.8
2017-Nov-10 04:00N 35°26' E 139°42'0 0.7
2017-Nov-10 03:31N 35°26' E 139°42'3 5.0
2017-Nov-10 03:00N 35°27' E 139°39'0 0.0
2017-Nov-10 02:29N 35°27' E 139°39'0 0.0
2017-Nov-10 01:59N 35°27' E 139°39'0 0.0
2017-Nov-10 01:29N 35°27' E 139°39'0 0.0
2017-Nov-10 00:59N 35°27' E 139°39'0 0.0
2017-Nov-10 00:29N 35°27' E 139°39'0 0.0
2017-Nov-09 23:59N 35°27' E 139°39'0 0.0
2017-Nov-09 23:29N 35°27' E 139°39'0 0.0
2017-Nov-09 22:59N 35°27' E 139°39'0 0.0
2017-Nov-09 22:23N 35°27' E 139°39'0 0.0
2017-Nov-09 21:59N 35°27' E 139°39'0 0.0
2017-Nov-09 21:29N 35°27' E 139°39'0 0.0
2017-Nov-09 20:59N 35°27' E 139°39'0 0.0
2017-Nov-09 20:29N 35°27' E 139°39'0 0.0
2017-Nov-09 19:59N 35°27' E 139°39'0 0.0
2017-Nov-09 19:29N 35°27' E 139°39'0 0.0
2017-Nov-09 18:59N 35°27' E 139°39'0 0.0
2017-Nov-09 18:29N 35°27' E 139°39'0 0.0
2017-Nov-09 17:59N 35°27' E 139°39'0 0.0
2017-Nov-09 17:29N 35°27' E 139°39'0 0.0
2017-Nov-09 16:59N 35°27' E 139°39'0 0.0
2017-Nov-09 16:29N 35°27' E 139°39'0 0.0
2017-Nov-09 15:59N 35°27' E 139°39'0 0.0
2017-Nov-09 15:29N 35°27' E 139°39'0 0.0
2017-Nov-09 14:59N 35°27' E 139°39'0 0.0
2017-Nov-09 14:26N 35°27' E 139°39'0 0.0
2017-Nov-09 13:59N 35°27' E 139°39'0 0.0
2017-Nov-09 13:29N 35°27' E 139°39'0 0.0
2017-Nov-09 12:59N 35°27' E 139°39'0 0.0
2017-Nov-09 12:29N 35°27' E 139°39'0 0.5
2017-Nov-09 12:00N 35°27' E 139°39'2 3.8
2017-Nov-09 11:31N 35°27' E 139°41'0 1.0
2017-Nov-09 11:01N 35°27' E 139°41'2 4.2
2017-Nov-09 10:31N 35°27' E 139°39'0 0.0
2017-Nov-09 09:59N 35°27' E 139°39'1 1.8
2017-Nov-09 09:30N 35°28' E 139°39'0 0.9
2017-Nov-09 09:00N 35°27' E 139°39'2 4.2
2017-Nov-09 08:30N 35°27' E 139°42'2 4.6
2017-Nov-09 08:00N 35°27' E 139°39'0 0.0
2017-Nov-09 07:30N 35°27' E 139°39'0 0.5
2017-Nov-09 07:00N 35°27' E 139°39'2 4.0
2017-Nov-09 06:30N 35°27' E 139°41'2 3.3
2017-Nov-09 06:00N 35°27' E 139°40'1 1.4
2017-Nov-09 05:29N 35°27' E 139°39'0 0.0
2017-Nov-09 04:59N 35°27' E 139°39'1 1.5
2017-Nov-09 04:30N 35°28' E 139°40'3 5.7
2017-Nov-09 04:01N 35°26' E 139°42'2 3.5
2017-Nov-09 03:31N 35°27' E 139°41'2 3.2
2017-Nov-09 03:00N 35°27' E 139°39'0 0.0
2017-Nov-09 02:30N 35°27' E 139°39'0 0.0
2017-Nov-09 02:00N 35°27' E 139°39'0 0.0
2017-Nov-09 01:30N 35°27' E 139°39'0 0.0
2017-Nov-09 01:00N 35°27' E 139°39'0 0.0
2017-Nov-09 00:30N 35°27' E 139°39'0 0.0
2017-Nov-09 00:00N 35°27' E 139°39'0 0.0
2017-Nov-08 23:30N 35°27' E 139°39'0 0.0
2017-Nov-08 23:00N 35°27' E 139°39'0 0.0
2017-Nov-08 22:30N 35°27' E 139°39'0 0.0
2017-Nov-08 22:00N 35°27' E 139°39'  
Track history (hours):
 
Tides and Currents Weather Stations Pressure Air Temp Water Temp Dewpoint Dewpoint Depression Visibility Wind Speed Wind Dir Waves Ship Positions

Royalwing

Last reported at 2017-Nov-18 21:30 UTC. Time now 2017-Nov-18 21:59 UTC.
Position N 35°27' E 139°39'.

Length 83 m; draft 4 m.

Type: Ship (hazmat cat A). MMSI: 431000547.

Date/timePositionNaut miles runAvg speedWind from/ knotsBaromVisibWave heightAir tempDewpointWater temp
2017-Nov-18 21:30N 35°27' E 139°39'0 0.0
2017-Nov-18 21:00N 35°27' E 139°39'0 0.0
2017-Nov-18 20:30N 35°27' E 139°39'0 0.0
2017-Nov-18 20:00N 35°27' E 139°39'0 0.0
2017-Nov-18 19:30N 35°27' E 139°39'0 0.0
2017-Nov-18 19:00N 35°27' E 139°39'0 0.0
2017-Nov-18 18:30N 35°27' E 139°39'0 0.0
2017-Nov-18 18:00N 35°27' E 139°39'0 0.0
2017-Nov-18 17:30N 35°27' E 139°39'0 0.0
2017-Nov-18 17:00N 35°27' E 139°39'0 0.0
2017-Nov-18 16:27N 35°27' E 139°39'0 0.0
2017-Nov-18 16:00N 35°27' E 139°39'0 0.0
2017-Nov-18 15:27N 35°27' E 139°39'0 0.0
2017-Nov-18 15:00N 35°27' E 139°39'0 0.0
2017-Nov-18 14:30N 35°27' E 139°39'0 0.0
2017-Nov-18 14:00N 35°27' E 139°39'0 0.0
2017-Nov-18 13:30N 35°27' E 139°39'0 0.0
2017-Nov-18 13:00N 35°27' E 139°39'0 0.0
2017-Nov-18 12:30N 35°27' E 139°39'1 1.2
2017-Nov-18 12:01N 35°28' E 139°39'2 3.3
2017-Nov-18 11:31N 35°27' E 139°41'2 3.2
2017-Nov-18 11:01N 35°28' E 139°40'1 2.9
2017-Nov-18 10:31N 35°27' E 139°39'0 0.0
2017-Nov-18 09:58N 35°27' E 139°39'1 1.8
2017-Nov-18 09:30N 35°28' E 139°39'3 5.5
2017-Nov-18 09:00N 35°27' E 139°42'0 0.8
2017-Nov-18 08:30N 35°27' E 139°41'2 4.1
2017-Nov-18 08:00N 35°27' E 139°39'0 0.0
2017-Nov-18 07:29N 35°27' E 139°39'1 1.2
2017-Nov-18 07:00N 35°28' E 139°39'3 5.7
2017-Nov-18 06:30N 35°26' E 139°42'2 4.7
2017-Nov-18 06:00N 35°27' E 139°40'1 1.2
2017-Nov-18 05:28N 35°27' E 139°39'0 0.0
2017-Nov-18 04:58N 35°27' E 139°39'1 1.7
2017-Nov-18 04:30N 35°28' E 139°39'3 5.3
2017-Nov-18 04:00N 35°27' E 139°42'0 0.6
2017-Nov-18 03:30N 35°27' E 139°41'2 3.9
2017-Nov-18 03:00N 35°27' E 139°39'0 0.0
2017-Nov-18 02:28N 35°27' E 139°39'0 0.0
2017-Nov-18 01:58N 35°27' E 139°39'0 0.0
2017-Nov-18 01:28N 35°27' E 139°39'0 0.0
2017-Nov-18 00:58N 35°27' E 139°39'0 0.0
2017-Nov-18 00:28N 35°27' E 139°39'0 0.0
2017-Nov-17 23:58N 35°27' E 139°39'0 0.0
2017-Nov-17 23:28N 35°27' E 139°39'0 0.0
2017-Nov-17 22:58N 35°27' E 139°39'0 0.0
2017-Nov-17 22:28N 35°27' E 139°39'0 0.0
2017-Nov-17 21:58N 35°27' E 139°39'0 0.0
2017-Nov-17 21:28N 35°27' E 139°39'0 0.0
2017-Nov-17 20:58N 35°27' E 139°39'0 0.0
2017-Nov-17 20:28N 35°27' E 139°39'0 0.0
2017-Nov-17 19:58N 35°27' E 139°39'0 0.0
2017-Nov-17 19:28N 35°27' E 139°39'0 0.0
2017-Nov-17 18:58N 35°27' E 139°39'0 0.0
2017-Nov-17 18:28N 35°27' E 139°39'0 0.0
2017-Nov-17 17:58N 35°27' E 139°39'0 0.0
2017-Nov-17 17:28N 35°27' E 139°39'0 0.0
2017-Nov-17 16:58N 35°27' E 139°39'0 0.0
2017-Nov-17 16:28N 35°27' E 139°39'0 0.0
2017-Nov-17 15:58N 35°27' E 139°39'0 0.0
2017-Nov-17 15:28N 35°27' E 139°39'0 0.0
2017-Nov-17 14:58N 35°27' E 139°39'0 0.0
2017-Nov-17 14:28N 35°27' E 139°39'0 0.0
2017-Nov-17 13:58N 35°27' E 139°39'0 0.0
2017-Nov-17 13:28N 35°27' E 139°39'0 0.0
2017-Nov-17 12:58N 35°27' E 139°39'0 0.0
2017-Nov-17 12:28N 35°27' E 139°39'1 1.7
2017-Nov-17 12:00N 35°28' E 139°39'3 5.2
2017-Nov-17 11:30N 35°27' E 139°42'0 0.5
2017-Nov-17 11:00N 35°27' E 139°41'2 3.9
2017-Nov-17 10:30N 35°27' E 139°39'0 0.0
2017-Nov-17 09:59N 35°27' E 139°39'1 1.8
2017-Nov-17 09:30N 35°28' E 139°39'3 5.5
2017-Nov-17 09:00N 35°27' E 139°42'1 1.0
2017-Nov-17 08:30N 35°27' E 139°41'2 3.6
2017-Nov-17 08:00N 35°27' E 139°39'0 0.0
2017-Nov-17 07:28N 35°27' E 139°39'1 1.1
2017-Nov-17 07:00N 35°28' E 139°39'3 5.6
2017-Nov-17 06:30N 35°26' E 139°42'2 4.7
2017-Nov-17 06:00N 35°27' E 139°40'1 1.4
2017-Nov-17 05:30N 35°27' E 139°39'0 0.0
2017-Nov-17 04:59N 35°27' E 139°39'1 1.8
2017-Nov-17 04:30N 35°28' E 139°39'3 6.5
2017-Nov-17 04:00N 35°26' E 139°42'1 1.4
2017-Nov-17 03:30N 35°27' E 139°41'2 4.3
2017-Nov-17 03:00N 35°27' E 139°39'0 0.0
2017-Nov-17 02:29N 35°27' E 139°39'0 0.0
2017-Nov-17 01:58N 35°27' E 139°39'0 0.0
2017-Nov-17 01:29N 35°27' E 139°39'0 0.0
2017-Nov-17 00:59N 35°27' E 139°39'0 0.0
2017-Nov-17 00:29N 35°27' E 139°39'0 0.0
2017-Nov-16 23:59N 35°27' E 139°39'0 0.0
2017-Nov-16 23:29N 35°27' E 139°39'0 0.0
2017-Nov-16 22:59N 35°27' E 139°39'0 0.0
2017-Nov-16 22:29N 35°27' E 139°39'0 0.0
2017-Nov-16 21:59N 35°27' E 139°39'0 0.0
2017-Nov-16 21:29N 35°27' E 139°39'0 0.0
2017-Nov-16 20:59N 35°27' E 139°39'0 0.0
2017-Nov-16 20:29N 35°27' E 139°39'0 0.0
2017-Nov-16 19:58N 35°27' E 139°39'0 0.0
2017-Nov-16 19:29N 35°27' E 139°39'0 0.0
2017-Nov-16 18:59N 35°27' E 139°39'0 0.0
2017-Nov-16 18:29N 35°27' E 139°39'0 0.0
2017-Nov-16 17:59N 35°27' E 139°39'0 0.0
2017-Nov-16 17:29N 35°27' E 139°39'0 0.0
2017-Nov-16 16:58N 35°27' E 139°39'0 0.0
2017-Nov-16 16:29N 35°27' E 139°39'0 0.0
2017-Nov-16 15:59N 35°27' E 139°39'0 0.0
2017-Nov-16 15:29N 35°27' E 139°39'0 0.0
2017-Nov-16 14:59N 35°27' E 139°39'0 0.0
2017-Nov-16 14:29N 35°27' E 139°39'0 0.0
2017-Nov-16 13:59N 35°27' E 139°39'0 0.0
2017-Nov-16 13:29N 35°27' E 139°39'0 0.0
2017-Nov-16 12:59N 35°27' E 139°39'0 0.0
2017-Nov-16 12:28N 35°27' E 139°39'1 1.4
2017-Nov-16 12:01N 35°28' E 139°39'2 3.7
2017-Nov-16 11:30N 35°27' E 139°41'2 3.8
2017-Nov-16 11:01N 35°28' E 139°39'1 1.4
2017-Nov-16 10:30N 35°27' E 139°39'0 0.0
2017-Nov-16 10:00N 35°27' E 139°39'1 1.9
2017-Nov-16 09:30N 35°28' E 139°39'0 0.3
2017-Nov-16 09:00N 35°28' E 139°39'2 4.5
2017-Nov-16 08:30N 35°27' E 139°41'2 3.7
2017-Nov-16 08:00N 35°27' E 139°39'0 0.0
2017-Nov-16 07:28N 35°27' E 139°39'1 1.2
2017-Nov-16 07:00N 35°28' E 139°39'2 4.5
2017-Nov-16 06:31N 35°27' E 139°42'2 3.6
2017-Nov-16 06:01N 35°28' E 139°40'1 1.6
2017-Nov-16 05:29N 35°27' E 139°39'0 0.0
2017-Nov-16 04:59N 35°27' E 139°39'1 1.8
2017-Nov-16 04:30N 35°28' E 139°39'3 6.5
2017-Nov-16 04:00N 35°26' E 139°42'1 1.4
2017-Nov-16 03:30N 35°27' E 139°41'2 4.2
2017-Nov-16 03:00N 35°27' E 139°39'0 0.0
2017-Nov-16 02:29N 35°27' E 139°39'0 0.0
2017-Nov-16 01:59N 35°27' E 139°39'0 0.0
2017-Nov-16 01:29N 35°27' E 139°39'0 0.0
2017-Nov-16 00:59N 35°27' E 139°39'0 0.0
2017-Nov-16 00:29N 35°27' E 139°39'0 0.0
2017-Nov-15 23:59N 35°27' E 139°39'0 0.0
2017-Nov-15 23:29N 35°27' E 139°39'0 0.0
2017-Nov-15 22:59N 35°27' E 139°39'0 0.0
2017-Nov-15 22:29N 35°27' E 139°39'0 0.0
2017-Nov-15 21:59N 35°27' E 139°39'0 0.0
2017-Nov-15 21:29N 35°27' E 139°39'0 0.0
2017-Nov-15 20:59N 35°27' E 139°39'0 0.0
2017-Nov-15 20:29N 35°27' E 139°39'0 0.0
2017-Nov-15 19:59N 35°27' E 139°39'0 0.0
2017-Nov-15 19:29N 35°27' E 139°39'0 0.0
2017-Nov-15 18:59N 35°27' E 139°39'0 0.0
2017-Nov-15 18:29N 35°27' E 139°39'0 0.0
2017-Nov-15 17:59N 35°27' E 139°39'0 0.0
2017-Nov-15 17:29N 35°27' E 139°39'0 0.0
2017-Nov-15 16:59N 35°27' E 139°39'0 0.0
2017-Nov-15 16:29N 35°27' E 139°39'0 0.0
2017-Nov-15 15:59N 35°27' E 139°39'0 0.0
2017-Nov-15 15:29N 35°27' E 139°39'0 0.0
2017-Nov-15 14:59N 35°27' E 139°39'0 0.0
2017-Nov-15 14:29N 35°27' E 139°39'0 0.0
2017-Nov-15 13:59N 35°27' E 139°39'0 0.0
2017-Nov-15 13:29N 35°27' E 139°39'0 0.0
2017-Nov-15 12:59N 35°27' E 139°39'0 0.0
2017-Nov-15 12:29N 35°27' E 139°39'1 1.8
2017-Nov-15 12:00N 35°28' E 139°39'2 4.9
2017-Nov-15 11:30N 35°27' E 139°41'0 0.3
2017-Nov-15 11:00N 35°27' E 139°41'2 4.1
2017-Nov-15 10:31N 35°27' E 139°39'0 0.0
2017-Nov-15 09:58N 35°27' E 139°39'1 1.7
2017-Nov-15 09:30N 35°28' E 139°39'2 3.1
2017-Nov-15 09:00N 35°27' E 139°41'1 1.9
2017-Nov-15 08:30N 35°27' E 139°41'2 4.2
2017-Nov-15 08:01N 35°27' E 139°39'0 0.0
2017-Nov-15 07:30N 35°27' E 139°39'1 1.2
2017-Nov-15 07:00N 35°28' E 139°39'2 4.4
2017-Nov-15 06:30N 35°27' E 139°42'2 3.5
2017-Nov-15 06:01N 35°27' E 139°40'1 1.3
2017-Nov-15 05:28N 35°27' E 139°39'0 0.0
2017-Nov-15 04:58N 35°27' E 139°39'1 1.3
2017-Nov-15 04:30N 35°28' E 139°39'2 4.5
2017-Nov-15 04:00N 35°27' E 139°41'0 0.3
2017-Nov-15 03:30N 35°27' E 139°41'2 4.0
2017-Nov-15 03:00N 35°27' E 139°39'0 0.0
2017-Nov-15 02:29N 35°27' E 139°39'0 0.0
2017-Nov-15 01:59N 35°27' E 139°39'0 0.0
2017-Nov-15 01:29N 35°27' E 139°39'0 0.0
2017-Nov-15 00:59N 35°27' E 139°39'0 0.0
2017-Nov-15 00:29N 35°27' E 139°39'0 0.0
2017-Nov-14 23:59N 35°27' E 139°39'0 0.0
2017-Nov-14 23:29N 35°27' E 139°39'0 0.0
2017-Nov-14 22:59N 35°27' E 139°39'0 0.0
2017-Nov-14 22:29N 35°27' E 139°39'0 0.0
2017-Nov-14 21:59N 35°27' E 139°39'0 0.0
2017-Nov-14 21:29N 35°27' E 139°39'0 0.0
2017-Nov-14 20:59N 35°27' E 139°39'0 0.0
2017-Nov-14 20:29N 35°27' E 139°39'0 0.0
2017-Nov-14 19:59N 35°27' E 139°39'0 0.0
2017-Nov-14 19:29N 35°27' E 139°39'0 0.0
2017-Nov-14 18:59N 35°27' E 139°39'0 0.0
2017-Nov-14 18:29N 35°27' E 139°39'0 0.0
2017-Nov-14 17:59N 35°27' E 139°39'0 0.0
2017-Nov-14 17:29N 35°27' E 139°39'0 0.0
2017-Nov-14 16:59N 35°27' E 139°39'0 0.0
2017-Nov-14 16:29N 35°27' E 139°39'0 0.0
2017-Nov-14 15:59N 35°27' E 139°39'0 0.0
2017-Nov-14 15:29N 35°27' E 139°39'0 0.0
2017-Nov-14 14:59N 35°27' E 139°39'0 0.0
2017-Nov-14 14:29N 35°27' E 139°39'0 0.0
2017-Nov-14 13:59N 35°27' E 139°39'0 0.0
2017-Nov-14 13:29N 35°27' E 139°39'0 0.0
2017-Nov-14 12:59N 35°27' E 139°39'0 0.0
2017-Nov-14 12:29N 35°27' E 139°39'1 1.7
2017-Nov-14 12:00N 35°28' E 139°39'2 4.1
2017-Nov-14 11:30N 35°27' E 139°41'1 1.0
2017-Nov-14 11:00N 35°27' E 139°41'2 4.3
2017-Nov-14 10:30N 35°27' E 139°39'0 0.0
2017-Nov-14 09:59N 35°27' E 139°39'1 1.3
2017-Nov-14 09:30N 35°28' E 139°39'2 4.6
2017-Nov-14 09:00N 35°27' E 139°42'0 0.8
2017-Nov-14 08:30N 35°27' E 139°41'2 3.5
2017-Nov-14 08:00N 35°27' E 139°39'0 0.0
2017-Nov-14 07:30N 35°27' E 139°39'1 1.0
2017-Nov-14 07:00N 35°28' E 139°39'3 5.1
2017-Nov-14 06:30N 35°27' E 139°42'2 4.1
2017-Nov-14 06:01N 35°28' E 139°40'1 1.6
2017-Nov-14 05:30N 35°27' E 139°39'0 0.0
2017-Nov-14 05:00N 35°27' E 139°39'1 1.8
2017-Nov-14 04:30N 35°28' E 139°39'3 6.1
2017-Nov-14 04:00N 35°26' E 139°42'0 1.0
2017-Nov-14 03:30N 35°27' E 139°41'2 4.3
2017-Nov-14 03:00N 35°27' E 139°39'0 0.0
2017-Nov-14 02:28N 35°27' E 139°39'0 0.0
2017-Nov-14 01:58N 35°27' E 139°39'0 0.0
2017-Nov-14 01:28N 35°27' E 139°39'0 0.0
2017-Nov-14 00:58N 35°27' E 139°39'0 0.0
2017-Nov-14 00:28N 35°27' E 139°39'0 0.0
2017-Nov-13 23:58N 35°27' E 139°39'0 0.0
2017-Nov-13 23:28N 35°27' E 139°39'0 0.0
2017-Nov-13 22:58N 35°27' E 139°39'0 0.0
2017-Nov-13 22:28N 35°27' E 139°39'0 0.0
2017-Nov-13 21:58N 35°27' E 139°39'0 0.0
2017-Nov-13 01:55N 35°27' E 139°39'0 0.0
2017-Nov-13 01:28N 35°27' E 139°39'0 0.0
2017-Nov-13 00:58N 35°27' E 139°39'0 0.0
2017-Nov-13 00:25N 35°27' E 139°39'0 0.0
2017-Nov-12 23:58N 35°27' E 139°39'0 0.0
2017-Nov-12 23:28N 35°27' E 139°39'0 0.0
2017-Nov-12 22:58N 35°27' E 139°39'0 0.0
2017-Nov-12 22:28N 35°27' E 139°39'0 0.0
2017-Nov-12 21:58N 35°27' E 139°39'0 0.0
2017-Nov-12 21:28N 35°27' E 139°39'0 0.0
2017-Nov-12 20:58N 35°27' E 139°39'0 0.0
2017-Nov-12 20:28N 35°27' E 139°39'0 0.0
2017-Nov-12 19:58N 35°27' E 139°39'0 0.0
2017-Nov-12 19:28N 35°27' E 139°39'0 0.0
2017-Nov-12 18:58N 35°27' E 139°39'0 0.0
2017-Nov-12 18:28N 35°27' E 139°39'0 0.0
2017-Nov-12 17:58N 35°27' E 139°39'0 0.0
2017-Nov-12 17:28N 35°27' E 139°39'0 0.0
2017-Nov-12 16:58N 35°27' E 139°39'0 0.0
2017-Nov-12 16:28N 35°27' E 139°39'0 0.0
2017-Nov-12 15:58N 35°27' E 139°39'0 0.0
2017-Nov-12 15:28N 35°27' E 139°39'0 0.0
2017-Nov-12 14:58N 35°27' E 139°39'0 0.0
2017-Nov-12 14:28N 35°27' E 139°39'0 0.0
2017-Nov-12 13:58N 35°27' E 139°39'0 0.0
2017-Nov-12 13:28N 35°27' E 139°39'0 0.0
2017-Nov-12 12:58N 35°27' E 139°39'0 0.0
2017-Nov-12 12:28N 35°27' E 139°39'0 0.3
2017-Nov-12 12:00N 35°27' E 139°39'2 3.2
2017-Nov-12 11:30N 35°27' E 139°41'1 1.4
2017-Nov-12 11:00N 35°27' E 139°41'2 4.4
2017-Nov-12 10:30N 35°27' E 139°39'0 0.0
2017-Nov-12 10:00N 35°27' E 139°39'0 0.3
2017-Nov-12 09:30N 35°27' E 139°39'1 2.9
2017-Nov-12 09:00N 35°27' E 139°41'1 1.1
2017-Nov-12 08:30N 35°27' E 139°41'2 3.8
2017-Nov-12 08:00N 35°27' E 139°39'0 0.0
2017-Nov-12 07:30N 35°27' E 139°39'0 0.3
2017-Nov-12 07:00N 35°27' E 139°39'2 4.5
2017-Nov-12 06:30N 35°27' E 139°42'2 3.5
2017-Nov-12 06:00N 35°27' E 139°40'1 1.5
2017-Nov-12 05:30N 35°27' E 139°39'0 0.0
2017-Nov-12 05:00N 35°27' E 139°39'0 0.3
2017-Nov-12 04:30N 35°27' E 139°39'2 3.6
2017-Nov-12 04:00N 35°27' E 139°41'0 0.6
2017-Nov-12 03:30N 35°27' E 139°41'2 3.7
2017-Nov-12 03:00N 35°27' E 139°39'0 0.0
2017-Nov-12 02:29N 35°27' E 139°39'0 0.0
2017-Nov-12 01:59N 35°27' E 139°39'0 0.0
2017-Nov-12 01:29N 35°27' E 139°39'0 0.0
2017-Nov-12 00:59N 35°27' E 139°39'0 0.0
2017-Nov-12 00:29N 35°27' E 139°39'0 0.0
2017-Nov-11 23:59N 35°27' E 139°39'0 0.0
2017-Nov-11 23:29N 35°27' E 139°39'0 0.0
2017-Nov-11 22:56N 35°27' E 139°39'0 0.0
2017-Nov-11 22:26N 35°27' E 139°39'0 0.0
2017-Nov-11 21:59N 35°27' E 139°39'0 0.0
2017-Nov-11 21:29N 35°27' E 139°39'0 0.0
2017-Nov-11 20:59N 35°27' E 139°39'0 0.0
2017-Nov-11 20:29N 35°27' E 139°39'0 0.0
2017-Nov-11 19:59N 35°27' E 139°39'0 0.0
2017-Nov-11 19:29N 35°27' E 139°39'0 0.0
2017-Nov-11 18:56N 35°27' E 139°39'0 0.0
2017-Nov-11 18:29N 35°27' E 139°39'0 0.0
2017-Nov-11 17:59N 35°27' E 139°39'0 0.0
2017-Nov-11 17:29N 35°27' E 139°39'0 0.0
2017-Nov-11 16:59N 35°27' E 139°39'0 0.0
2017-Nov-11 16:23N 35°27' E 139°39'0 0.0
2017-Nov-11 15:59N 35°27' E 139°39'0 0.0
2017-Nov-11 15:29N 35°27' E 139°39'0 0.0
2017-Nov-11 14:59N 35°27' E 139°39'0 0.0
2017-Nov-11 14:29N 35°27' E 139°39'0 0.0
2017-Nov-11 13:59N 35°27' E 139°39'0 0.0
2017-Nov-11 13:29N 35°27' E 139°39'0 0.0
2017-Nov-11 12:59N 35°27' E 139°39'0 0.0
2017-Nov-11 12:29N 35°27' E 139°39'1 1.3
2017-Nov-11 12:00N 35°28' E 139°39'2 4.7
2017-Nov-11 11:30N 35°27' E 139°41'1 1.4
2017-Nov-11 11:00N 35°27' E 139°41'1 2.9
2017-Nov-11 10:30N 35°27' E 139°39'0 0.0
2017-Nov-11 10:00N 35°27' E 139°39'0 0.7
2017-Nov-11 09:31N 35°27' E 139°39'1 2.9
2017-Nov-11 09:00N 35°27' E 139°41'1 1.3
2017-Nov-11 08:30N 35°27' E 139°40'1 2.2
2017-Nov-11 08:01N 35°27' E 139°39'0 0.0
2017-Nov-11 07:30N 35°27' E 139°39'1 1.1
2017-Nov-11 07:01N 35°28' E 139°39'2 4.4
2017-Nov-11 06:30N 35°27' E 139°42'2 3.6
2017-Nov-11 06:01N 35°27' E 139°40'1 1.4
2017-Nov-11 05:30N 35°27' E 139°39'0 0.0
2017-Nov-11 05:00N 35°27' E 139°39'1 1.6
2017-Nov-11 04:30N 35°28' E 139°39'3 5.9
2017-Nov-11 04:00N 35°26' E 139°42'1 1.5
2017-Nov-11 03:30N 35°27' E 139°41'2 4.2
2017-Nov-11 03:00N 35°27' E 139°39'0 0.0
2017-Nov-11 02:29N 35°27' E 139°39'0 0.0
2017-Nov-11 01:59N 35°27' E 139°39'0 0.0
2017-Nov-11 01:29N 35°27' E 139°39'0 0.0
2017-Nov-11 00:59N 35°27' E 139°39'0 0.0
2017-Nov-11 00:29N 35°27' E 139°39'0 0.0
2017-Nov-10 23:59N 35°27' E 139°39'0 0.0
2017-Nov-10 23:29N 35°27' E 139°39'0 0.0
2017-Nov-10 22:59N 35°27' E 139°39'0 0.0
2017-Nov-10 22:29N 35°27' E 139°39'0 0.0
2017-Nov-10 21:59N 35°27' E 139°39'0 0.0
2017-Nov-10 21:29N 35°27' E 139°39'0 0.0
2017-Nov-10 20:59N 35°27' E 139°39'0 0.0
2017-Nov-10 20:29N 35°27' E 139°39'0 0.0
2017-Nov-10 19:59N 35°27' E 139°39'0 0.0
2017-Nov-10 19:29N 35°27' E 139°39'0 0.0
2017-Nov-10 18:59N 35°27' E 139°39'0 0.0
2017-Nov-10 18:29N 35°27' E 139°39'0 0.0
2017-Nov-10 17:59N 35°27' E 139°39'0 0.0
2017-Nov-10 17:29N 35°27' E 139°39'0 0.0
2017-Nov-10 16:59N 35°27' E 139°39'0 0.0
2017-Nov-10 16:26N 35°27' E 139°39'0 0.0
2017-Nov-10 15:59N 35°27' E 139°39'0 0.0
2017-Nov-10 15:29N 35°27' E 139°39'0 0.0
2017-Nov-10 14:59N 35°27' E 139°39'0 0.0
2017-Nov-10 14:29N 35°27' E 139°39'0 0.0
2017-Nov-10 13:59N 35°27' E 139°39'0 0.0
2017-Nov-10 13:29N 35°27' E 139°39'0 0.0
2017-Nov-10 12:59N 35°27' E 139°39'0 0.0
2017-Nov-10 12:29N 35°27' E 139°39'1 1.7
2017-Nov-10 12:00N 35°28' E 139°39'3 6.5
2017-Nov-10 11:30N 35°26' E 139°42'2 4.0
2017-Nov-10 11:00N 35°27' E 139°40'1 2.4
2017-Nov-10 10:30N 35°27' E 139°39'0 0.0
2017-Nov-10 09:56N 35°27' E 139°39'1 1.9
2017-Nov-10 09:31N 35°28' E 139°39'3 6.4
2017-Nov-10 09:00N 35°26' E 139°42'2 3.8
2017-Nov-10 08:30N 35°27' E 139°40'1 2.3
2017-Nov-10 08:01N 35°27' E 139°39'0 0.0
2017-Nov-10 07:30N 35°27' E 139°39'0 0.3
2017-Nov-10 07:00N 35°27' E 139°39'2 4.9
2017-Nov-10 06:30N 35°27' E 139°42'1 2.9
2017-Nov-10 06:00N 35°27' E 139°40'1 2.3
2017-Nov-10 05:30N 35°27' E 139°39'0 0.0
2017-Nov-10 05:00N 35°27' E 139°39'0 0.7
2017-Nov-10 04:31N 35°27' E 139°39'3 5.8
2017-Nov-10 04:00N 35°26' E 139°42'0 0.7
2017-Nov-10 03:31N 35°26' E 139°42'3 5.0
2017-Nov-10 03:00N 35°27' E 139°39'0 0.0
2017-Nov-10 02:29N 35°27' E 139°39'0 0.0
2017-Nov-10 01:59N 35°27' E 139°39'0 0.0
2017-Nov-10 01:29N 35°27' E 139°39'0 0.0
2017-Nov-10 00:59N 35°27' E 139°39'0 0.0
2017-Nov-10 00:29N 35°27' E 139°39'0 0.0
2017-Nov-09 23:59N 35°27' E 139°39'0 0.0
2017-Nov-09 23:29N 35°27' E 139°39'0 0.0
2017-Nov-09 22:59N 35°27' E 139°39'0 0.0
2017-Nov-09 22:23N 35°27' E 139°39'0 0.0
2017-Nov-09 21:59N 35°27' E 139°39'0 0.0
2017-Nov-09 21:29N 35°27' E 139°39'0 0.0
2017-Nov-09 20:59N 35°27' E 139°39'0 0.0
2017-Nov-09 20:29N 35°27' E 139°39'0 0.0
2017-Nov-09 19:59N 35°27' E 139°39'0 0.0
2017-Nov-09 19:29N 35°27' E 139°39'0 0.0
2017-Nov-09 18:59N 35°27' E 139°39'0 0.0
2017-Nov-09 18:29N 35°27' E 139°39'0 0.0
2017-Nov-09 17:59N 35°27' E 139°39'0 0.0
2017-Nov-09 17:29N 35°27' E 139°39'0 0.0
2017-Nov-09 16:59N 35°27' E 139°39'0 0.0
2017-Nov-09 16:29N 35°27' E 139°39'0 0.0
2017-Nov-09 15:59N 35°27' E 139°39'0 0.0
2017-Nov-09 15:29N 35°27' E 139°39'0 0.0
2017-Nov-09 14:59N 35°27' E 139°39'0 0.0
2017-Nov-09 14:26N 35°27' E 139°39'0 0.0
2017-Nov-09 13:59N 35°27' E 139°39'0 0.0
2017-Nov-09 13:29N 35°27' E 139°39'0 0.0
2017-Nov-09 12:59N 35°27' E 139°39'0 0.0
2017-Nov-09 12:29N 35°27' E 139°39'0 0.5
2017-Nov-09 12:00N 35°27' E 139°39'2 3.8
2017-Nov-09 11:31N 35°27' E 139°41'0 1.0
2017-Nov-09 11:01N 35°27' E 139°41'2 4.2
2017-Nov-09 10:31N 35°27' E 139°39'0 0.0
2017-Nov-09 09:59N 35°27' E 139°39'1 1.8
2017-Nov-09 09:30N 35°28' E 139°39'0 0.9
2017-Nov-09 09:00N 35°27' E 139°39'2 4.2
2017-Nov-09 08:30N 35°27' E 139°42'2 4.6
2017-Nov-09 08:00N 35°27' E 139°39'0 0.0
2017-Nov-09 07:30N 35°27' E 139°39'0 0.5
2017-Nov-09 07:00N 35°27' E 139°39'2 4.0
2017-Nov-09 06:30N 35°27' E 139°41'2 3.3
2017-Nov-09 06:00N 35°27' E 139°40'1 1.4
2017-Nov-09 05:29N 35°27' E 139°39'0 0.0
2017-Nov-09 04:59N 35°27' E 139°39'1 1.5
2017-Nov-09 04:30N 35°28' E 139°40'3 5.7
2017-Nov-09 04:01N 35°26' E 139°42'2 3.5
2017-Nov-09 03:31N 35°27' E 139°41'2 3.2
2017-Nov-09 03:00N 35°27' E 139°39'0 0.0
2017-Nov-09 02:30N 35°27' E 139°39'0 0.0
2017-Nov-09 02:00N 35°27' E 139°39'0 0.0
2017-Nov-09 01:30N 35°27' E 139°39'0 0.0
2017-Nov-09 01:00N 35°27' E 139°39'0 0.0
2017-Nov-09 00:30N 35°27' E 139°39'0 0.0
2017-Nov-09 00:00N 35°27' E 139°39'0 0.0
2017-Nov-08 23:30N 35°27' E 139°39'0 0.0
2017-Nov-08 23:00N 35°27' E 139°39'0 0.0
2017-Nov-08 22:30N 35°27' E 139°39'0 0.0
2017-Nov-08 22:00N 35°27' E 139°39'  

Dump ship's entire track history